createdAt,value
2022-09-06T00:01:23.452Z,19.69
2022-09-06T00:03:51.978Z,19.48
2022-09-06T00:06:21.426Z,19.69
2022-09-06T00:08:49.839Z,19.45
2022-09-06T00:11:18.790Z,19.41
2022-09-06T00:13:47.158Z,19.53
2022-09-06T00:16:17.117Z,19.06
2022-09-06T00:18:47.086Z,19.40
2022-09-06T00:21:17.449Z,19.55
2022-09-06T00:23:45.511Z,19.24
2022-09-06T00:26:13.741Z,19.51
2022-09-06T00:28:41.969Z,19.24
2022-09-06T00:31:11.422Z,19.23
2022-09-06T00:33:39.482Z,19.44
2022-09-06T00:36:09.267Z,18.89
2022-09-06T00:38:37.871Z,19.45
2022-09-06T00:41:06.429Z,19.19
2022-09-06T00:43:34.570Z,19.13
2022-09-06T00:46:03.779Z,19.06
2022-09-06T00:48:31.966Z,18.73
2022-09-06T00:51:02.426Z,19.16
2022-09-06T00:53:32.198Z,19.23
2022-09-06T00:56:00.357Z,19.34
2022-09-06T00:58:29.040Z,19.39
2022-09-06T01:00:57.120Z,19.33
2022-09-06T01:03:25.847Z,19.42
2022-09-06T01:06:00.236Z,19.40
2022-09-06T01:08:37.698Z,19.50
2022-09-06T01:11:32.402Z,19.63
2022-09-06T01:14:07.145Z,19.28
2022-09-06T01:16:39.945Z,19.24
2022-09-06T01:19:33.657Z,19.20
2022-09-06T01:22:13.060Z,19.50
2022-09-06T01:24:54.815Z,19.11
2022-09-06T01:28:14.311Z,18.98
2022-09-06T01:30:49.269Z,19.36
2022-09-06T01:33:23.050Z,19.57
2022-09-06T01:35:54.753Z,19.44
2022-09-06T01:38:23.044Z,19.26
2022-09-06T01:40:51.077Z,19.23
2022-09-06T01:43:23.818Z,19.29
2022-09-06T01:46:01.388Z,18.89
2022-09-06T01:48:38.692Z,18.67
2022-09-06T01:51:14.291Z,18.51
2022-09-06T01:53:50.610Z,18.65
2022-09-06T01:56:26.831Z,18.53
2022-09-06T01:59:03.296Z,18.97
2022-09-06T02:01:37.114Z,18.98
2022-09-06T02:04:10.303Z,19.35
2022-09-06T02:06:43.445Z,19.23
2022-09-06T02:09:15.116Z,18.40
2022-09-06T02:11:47.237Z,18.77
2022-09-06T02:14:18.310Z,18.76
2022-09-06T02:16:48.860Z,18.94
2022-09-06T02:19:21.399Z,18.49
2022-09-06T02:21:50.799Z,18.55
2022-09-06T02:24:22.407Z,18.68
2022-09-06T02:26:50.758Z,18.55
2022-09-06T02:29:18.972Z,18.59
2022-09-06T02:31:50.641Z,18.38
2022-09-06T02:34:19.954Z,18.58
2022-09-06T02:36:48.361Z,18.39
2022-09-06T02:39:16.433Z,18.30
2022-09-06T02:41:45.798Z,18.64
2022-09-06T02:44:13.811Z,18.88
2022-09-06T02:46:41.845Z,18.72
2022-09-06T02:49:11.246Z,18.67
2022-09-06T02:51:40.394Z,18.44
2022-09-06T02:54:08.590Z,18.58
2022-09-06T02:56:37.038Z,18.28
2022-09-06T02:59:05.683Z,18.79
2022-09-06T03:01:34.121Z,18.98
2022-09-06T03:04:02.344Z,18.79
2022-09-06T03:06:31.854Z,18.24
2022-09-06T03:09:00.635Z,18.17
2022-09-06T03:11:29.149Z,18.09
2022-09-06T03:13:57.300Z,18.77
2022-09-06T03:16:25.396Z,18.88
2022-09-06T03:18:53.411Z,18.19
2022-09-06T03:21:21.498Z,18.86
2022-09-06T03:23:51.032Z,18.54
2022-09-06T03:26:19.051Z,17.97
2022-09-06T03:28:47.412Z,18.80
2022-09-06T03:31:15.999Z,18.44
2022-09-06T03:33:44.089Z,18.35
2022-09-06T03:36:12.062Z,18.11
2022-09-06T03:38:40.124Z,18.22
2022-09-06T03:41:09.529Z,17.85
2022-09-06T03:43:37.748Z,18.25
2022-09-06T03:46:05.846Z,18.28
2022-09-06T03:48:33.877Z,18.49
2022-09-06T03:51:01.976Z,18.12
2022-09-06T03:53:30.487Z,18.12
2022-09-06T03:55:59.142Z,18.20
2022-09-06T03:58:31.225Z,18.22
2022-09-06T04:01:07.678Z,18.11
2022-09-06T04:03:36.808Z,18.20
2022-09-06T04:06:08.192Z,18.71
2022-09-06T04:08:36.621Z,18.73
2022-09-06T04:11:04.949Z,18.85
2022-09-06T04:13:35.225Z,18.66
2022-09-06T04:16:03.621Z,18.51
2022-09-06T04:18:31.826Z,18.60
2022-09-06T04:20:59.823Z,18.50
2022-09-06T04:23:29.758Z,18.10
2022-09-06T04:25:59.074Z,17.96
2022-09-06T04:28:27.853Z,18.03
2022-09-06T04:31:03.336Z,18.00
2022-09-06T04:33:33.661Z,17.97
2022-09-06T04:36:03.379Z,18.17
2022-09-06T04:38:34.982Z,17.95
2022-09-06T04:41:03.066Z,18.02
2022-09-06T04:43:31.070Z,18.06
2022-09-06T04:46:06.023Z,18.25
2022-09-06T04:48:34.407Z,18.53
2022-09-06T04:51:02.379Z,17.88
2022-09-06T04:53:30.357Z,17.85
2022-09-06T04:55:58.637Z,17.89
2022-09-06T04:58:26.923Z,17.85
2022-09-06T05:00:54.988Z,17.79
2022-09-06T05:03:24.719Z,18.22
2022-09-06T05:05:52.722Z,18.26
2022-09-06T05:08:20.708Z,17.76
2022-09-06T05:10:52.570Z,18.20
2022-09-06T05:13:20.602Z,18.04
2022-09-06T05:15:48.689Z,18.33
2022-09-06T05:18:16.832Z,18.38
2022-09-06T05:20:52.787Z,18.24
2022-09-06T05:23:20.833Z,18.13
2022-09-06T05:25:48.854Z,17.82
2022-09-06T05:28:17.419Z,18.07
2022-09-06T05:30:45.917Z,18.25
2022-09-06T05:33:15.464Z,18.01
2022-09-06T05:35:43.514Z,18.12
2022-09-06T05:38:12.899Z,18.12
2022-09-06T05:40:40.896Z,18.05
2022-09-06T05:43:08.910Z,18.13
2022-09-06T05:45:36.962Z,17.55
2022-09-06T05:48:05.197Z,17.43
2022-09-06T05:50:33.274Z,17.86
2022-09-06T05:53:01.324Z,17.96
2022-09-06T05:55:30.719Z,17.79
2022-09-06T05:57:58.696Z,18.04
2022-09-06T06:00:26.696Z,18.27
2022-09-06T06:02:54.671Z,18.26
2022-09-06T06:05:22.689Z,18.09
2022-09-06T06:07:50.668Z,18.32
2022-09-06T06:10:18.783Z,17.35
2022-09-06T06:12:48.682Z,17.91
2022-09-06T06:15:16.755Z,17.86
2022-09-06T06:17:44.746Z,18.28
2022-09-06T06:20:12.740Z,18.39
2022-09-06T06:23:05.052Z,17.64
2022-09-06T06:25:33.018Z,17.85
2022-09-06T06:28:02.459Z,18.15
2022-09-06T06:30:30.421Z,18.08
2022-09-06T06:32:58.890Z,18.12
2022-09-06T06:35:26.860Z,18.11
2022-09-06T06:37:54.851Z,17.98
2022-09-06T06:40:23.075Z,18.35
2022-09-06T06:42:51.167Z,18.48
2022-09-06T06:45:22.202Z,18.43
2022-09-06T06:47:51.001Z,18.19
2022-09-06T06:50:19.579Z,18.41
2022-09-06T06:52:47.643Z,18.15
2022-09-06T06:55:15.796Z,18.02
2022-09-06T06:57:43.803Z,18.41
2022-09-06T07:00:12.926Z,18.27
2022-09-06T07:02:42.331Z,18.23
2022-09-06T07:07:58.786Z,18.23
2022-09-06T07:10:34.242Z,18.43
2022-09-06T07:13:02.692Z,18.46
2022-09-06T07:15:30.674Z,18.24
2022-09-06T07:18:00.229Z,18.19
2022-09-06T07:20:28.289Z,17.83
2022-09-06T07:25:53.107Z,18.34
2022-09-06T07:28:21.368Z,18.50
2022-09-06T07:30:49.451Z,18.77
2022-09-06T07:33:18.981Z,18.48
2022-09-06T07:35:59.137Z,18.74
2022-09-06T07:38:27.765Z,18.83
2022-09-06T07:40:56.526Z,18.74
2022-09-06T07:43:24.783Z,18.66
2022-09-06T07:46:00.549Z,18.77
2022-09-06T07:48:31.453Z,18.71
2022-09-06T07:51:11.395Z,18.58
2022-09-06T07:53:40.417Z,18.55
2022-09-06T07:56:10.183Z,18.80
2022-09-06T07:58:39.587Z,18.58
2022-09-06T08:01:30.163Z,18.17
2022-09-06T08:04:00.917Z,18.82
2022-09-06T08:06:31.322Z,19.01
2022-09-06T08:09:01.097Z,18.68
2022-09-06T08:11:30.833Z,19.05
2022-09-06T08:14:00.239Z,19.10
2022-09-06T08:16:29.644Z,18.98
2022-09-06T08:19:00.216Z,18.92
2022-09-06T08:21:29.354Z,19.16
2022-09-06T08:23:59.201Z,19.17
2022-09-06T08:26:28.746Z,19.07
2022-09-06T08:28:58.908Z,19.10
2022-09-06T08:31:27.919Z,19.22
2022-09-06T08:33:56.847Z,19.25
2022-09-06T08:36:29.837Z,19.11
2022-09-06T08:38:59.144Z,19.11
2022-09-06T08:41:29.395Z,19.01
2022-09-06T08:46:52.319Z,19.07
2022-09-06T08:49:20.418Z,19.23
2022-09-06T08:52:01.313Z,19.05
2022-09-06T08:54:33.490Z,19.18
2022-09-06T08:57:06.373Z,18.99
2022-09-06T08:59:39.043Z,19.10
2022-09-06T09:02:15.370Z,18.95
2022-09-06T09:04:46.064Z,19.02
2022-09-06T09:07:32.872Z,19.07
2022-09-06T09:10:04.974Z,19.17
2022-09-06T09:12:33.953Z,18.82
2022-09-06T09:15:08.809Z,19.04
2022-09-06T09:17:37.554Z,19.20
2022-09-06T09:20:06.322Z,18.84
2022-09-06T09:22:36.694Z,18.80
2022-09-06T09:25:06.247Z,18.95
2022-09-06T09:27:34.941Z,19.18
2022-09-06T09:32:54.820Z,18.81
2022-09-06T09:35:27.144Z,18.84
2022-09-06T09:38:07.775Z,18.81
2022-09-06T09:40:41.709Z,18.75
2022-09-06T09:43:18.212Z,19.27
2022-09-06T09:45:47.229Z,19.05
2022-09-06T09:48:22.104Z,19.35
2022-09-06T09:50:50.597Z,19.06
2022-09-06T09:53:22.763Z,19.34
2022-09-06T09:55:55.702Z,19.25
2022-09-06T09:58:32.274Z,19.28
2022-09-06T10:01:14.501Z,19.00
2022-09-06T10:09:31.575Z,19.00
2022-09-06T10:12:01.557Z,19.47
2022-09-06T10:14:31.831Z,19.49
2022-09-06T10:17:00.811Z,19.45
2022-09-06T10:19:44.335Z,19.25
2022-09-06T10:22:28.677Z,19.63
2022-09-06T10:25:26.669Z,19.76
2022-09-06T10:28:29.488Z,19.61
2022-09-06T10:31:30.113Z,19.59
2022-09-06T10:34:08.541Z,19.33
2022-09-06T10:36:38.422Z,19.78
2022-09-06T10:39:17.906Z,19.77
2022-09-06T10:41:59.246Z,19.66
2022-09-06T10:44:38.229Z,19.17
2022-09-06T10:47:12.372Z,19.10
2022-09-06T10:49:42.301Z,19.71
2022-09-06T10:52:13.255Z,19.77
2022-09-06T10:54:42.330Z,19.58
2022-09-06T11:00:12.932Z,19.96
2022-09-06T11:02:47.313Z,19.63
2022-09-06T11:11:04.723Z,20.09
2022-09-06T11:13:34.186Z,19.98
2022-09-06T11:16:05.973Z,20.04
2022-09-06T11:18:38.999Z,20.00
2022-09-06T11:21:29.954Z,19.99
2022-09-06T11:24:06.871Z,19.58
2022-09-06T11:26:44.944Z,19.91
2022-09-06T11:29:21.319Z,19.93
2022-09-06T11:34:53.257Z,19.94
2022-09-06T11:37:26.661Z,19.75
2022-09-06T11:43:13.547Z,19.80
2022-09-06T11:45:45.731Z,19.65
2022-09-06T11:48:36.586Z,19.34
2022-09-06T11:51:07.968Z,19.55
2022-09-06T11:53:58.569Z,19.75
2022-09-06T11:56:31.109Z,19.25
2022-09-06T11:59:02.855Z,19.44
2022-09-06T12:01:42.826Z,19.58
2022-09-06T12:04:12.076Z,19.52
2022-09-06T12:06:41.582Z,19.83
2022-09-06T12:09:30.841Z,19.36
2022-09-06T12:11:59.319Z,19.68
2022-09-06T12:14:33.532Z,19.71
2022-09-06T12:17:31.126Z,19.42
2022-09-06T12:20:06.437Z,19.45
2022-09-06T12:22:54.677Z,19.63
2022-09-06T12:25:54.895Z,19.51
2022-09-06T12:28:37.165Z,19.76
2022-09-06T12:31:26.733Z,19.35
2022-09-06T12:33:56.429Z,19.63
2022-09-06T12:36:29.735Z,19.77
2022-09-06T12:38:59.588Z,19.43
2022-09-06T12:41:30.229Z,19.37
2022-09-06T12:44:00.100Z,19.66
2022-09-06T12:46:29.847Z,19.52
2022-09-06T12:49:04.261Z,19.37
2022-09-06T12:51:32.710Z,19.61
2022-09-06T12:54:02.307Z,19.61
2022-09-06T12:56:32.910Z,19.79
2022-09-06T12:59:14.871Z,19.78
2022-09-06T13:01:46.665Z,19.84
2022-09-06T13:04:20.168Z,19.71
2022-09-06T13:06:48.839Z,19.47
2022-09-06T13:09:20.408Z,19.55
2022-09-06T13:11:51.018Z,19.57
2022-09-06T13:14:21.761Z,19.63
2022-09-06T13:16:52.061Z,19.43
2022-09-06T13:19:32.161Z,19.67
2022-09-06T13:22:00.436Z,19.34
2022-09-06T13:24:47.042Z,19.38
2022-09-06T13:27:25.796Z,19.25
2022-09-06T13:29:58.394Z,19.40
2022-09-06T13:32:27.632Z,19.51
2022-09-06T13:34:59.060Z,19.50
2022-09-06T13:37:28.907Z,19.37
2022-09-06T13:39:57.578Z,19.55
2022-09-06T13:42:27.847Z,19.25
2022-09-06T13:45:00.076Z,19.44
2022-09-06T13:47:30.566Z,19.27
2022-09-06T13:50:00.443Z,19.37
2022-09-06T13:52:28.787Z,19.54
2022-09-06T13:54:56.719Z,19.24
2022-09-06T13:57:24.893Z,19.42
2022-09-06T13:59:52.896Z,19.46
2022-09-06T14:02:21.084Z,19.56
2022-09-06T14:04:49.095Z,19.54
2022-09-06T14:07:18.474Z,19.58
2022-09-06T14:09:47.533Z,19.65
2022-09-06T14:12:15.637Z,19.58
2022-09-06T14:14:44.627Z,19.53
2022-09-06T14:17:12.660Z,19.57
2022-09-06T14:19:40.684Z,19.68
2022-09-06T14:22:08.723Z,19.71
2022-09-06T14:24:38.284Z,19.76
2022-09-06T14:27:07.223Z,19.89
2022-09-06T14:29:35.709Z,20.04
2022-09-06T14:32:04.309Z,20.11
2022-09-06T14:34:32.712Z,20.31
2022-09-06T14:37:00.629Z,20.82
2022-09-06T14:39:28.776Z,21.10
2022-09-06T14:41:58.221Z,21.26
2022-09-06T14:44:26.285Z,21.25
2022-09-06T14:46:54.935Z,21.35
2022-09-06T14:49:23.439Z,21.32
2022-09-06T14:51:53.181Z,21.19
2022-09-06T14:54:24.134Z,21.15
2022-09-06T14:56:55.405Z,21.20
2022-09-06T14:59:24.889Z,21.13
2022-09-06T15:01:52.965Z,21.49
2022-09-06T15:04:20.985Z,22.06
2022-09-06T15:06:50.171Z,22.93
2022-09-06T15:09:18.765Z,23.15
2022-09-06T15:11:48.529Z,23.71
2022-09-06T15:14:18.662Z,23.92
2022-09-06T15:16:55.346Z,24.31
2022-09-06T15:19:24.603Z,24.38
2022-09-06T15:21:52.715Z,24.82
2022-09-06T15:24:20.976Z,24.90
2022-09-06T15:26:49.284Z,25.00
2022-09-06T15:29:17.942Z,25.08
2022-09-06T15:31:50.655Z,25.12
2022-09-06T15:34:19.168Z,25.26
2022-09-06T15:36:47.749Z,25.53
2022-09-06T15:39:16.215Z,25.93
2022-09-06T15:41:44.348Z,26.04
2022-09-06T15:44:13.716Z,25.64
2022-09-06T15:46:44.584Z,25.94
2022-09-06T15:49:16.271Z,26.27
2022-09-06T15:51:44.718Z,25.96
2022-09-06T15:54:14.230Z,26.33
2022-09-06T15:56:42.350Z,26.65
2022-09-06T15:59:10.953Z,26.72
2022-09-06T16:01:39.349Z,26.80
2022-09-06T16:04:08.079Z,26.53
2022-09-06T16:06:39.791Z,26.76
2022-09-06T16:09:09.782Z,26.42
2022-09-06T16:11:38.970Z,26.27
2022-09-06T16:14:08.663Z,26.18
2022-09-06T16:16:37.329Z,26.75
2022-09-06T16:19:05.840Z,27.62
2022-09-06T16:21:38.920Z,27.25
2022-09-06T16:24:10.157Z,27.28
2022-09-06T16:26:39.583Z,26.82
2022-09-06T16:29:09.451Z,26.44
2022-09-06T16:31:40.586Z,26.51
2022-09-06T16:34:09.194Z,27.32
2022-09-06T16:36:37.453Z,27.25
2022-09-06T16:39:06.064Z,27.58
2022-09-06T16:41:40.536Z,26.89
2022-09-06T16:44:09.327Z,27.47
2022-09-06T16:46:40.238Z,27.75
2022-09-06T16:49:08.385Z,27.19
2022-09-06T16:51:36.592Z,26.89
2022-09-06T16:54:04.704Z,27.49
2022-09-06T16:56:36.386Z,26.73
2022-09-06T16:59:06.432Z,26.14
2022-09-06T17:01:35.318Z,26.30
2022-09-06T17:04:04.556Z,25.79
2022-09-06T17:06:33.254Z,25.10
2022-09-06T17:09:03.817Z,24.41
2022-09-06T17:11:32.237Z,23.89
2022-09-06T17:14:01.792Z,23.86
2022-09-06T17:16:47.351Z,23.57
2022-09-06T17:19:15.492Z,23.59
2022-09-06T17:21:43.792Z,23.45
2022-09-06T17:24:12.035Z,23.51
2022-09-06T17:26:41.061Z,23.46
2022-09-06T17:29:10.773Z,23.25
2022-09-06T17:31:39.361Z,22.98
2022-09-06T17:34:07.862Z,22.83
2022-09-06T17:36:36.983Z,22.54
2022-09-06T17:39:06.970Z,22.43
2022-09-06T17:41:37.780Z,22.46
2022-09-06T17:44:06.271Z,22.28
2022-09-06T17:46:41.155Z,22.41
2022-09-06T17:49:12.270Z,22.31
2022-09-06T17:51:40.526Z,21.86
2022-09-06T17:54:09.916Z,22.01
2022-09-06T17:56:38.263Z,21.64
2022-09-06T17:59:08.283Z,21.75
2022-09-06T18:01:41.200Z,21.69
2022-09-06T18:04:10.110Z,21.50
2022-09-06T18:06:40.796Z,21.51
2022-09-06T18:09:11.332Z,21.45
2022-09-06T18:11:40.331Z,21.63
2022-09-06T18:14:09.892Z,21.58
2022-09-06T18:16:41.033Z,21.47
2022-09-06T18:19:09.875Z,21.35
2022-09-06T18:21:41.022Z,21.21
2022-09-06T18:24:09.535Z,21.22
2022-09-06T18:26:38.053Z,20.74
2022-09-06T18:29:08.408Z,21.00
2022-09-06T18:31:36.424Z,21.09
2022-09-06T18:34:07.065Z,20.66
2022-09-06T18:36:35.097Z,20.69
2022-09-06T18:39:04.706Z,20.46
2022-09-06T18:41:50.386Z,20.55
2022-09-06T18:44:19.123Z,20.55
2022-09-06T18:46:47.158Z,20.63
2022-09-06T18:49:17.010Z,20.35
2022-09-06T18:51:45.754Z,20.35
2022-09-06T18:54:14.056Z,20.46
2022-09-06T18:56:42.206Z,20.39
2022-09-06T18:59:10.884Z,20.30
2022-09-06T19:01:39.476Z,20.20
2022-09-06T19:04:08.316Z,20.10
2022-09-06T19:06:38.667Z,19.99
2022-09-06T19:09:08.399Z,20.01
2022-09-06T19:11:36.655Z,19.99
2022-09-06T19:14:05.841Z,20.05
2022-09-06T19:16:33.956Z,19.99
2022-09-06T19:19:06.550Z,19.87
2022-09-06T19:21:39.321Z,19.90
2022-09-06T19:24:11.443Z,19.69
2022-09-06T19:26:41.622Z,19.36
2022-09-06T19:29:13.723Z,19.53
2022-09-06T19:31:42.141Z,19.59
2022-09-06T19:34:10.286Z,19.41
2022-09-06T19:36:38.273Z,19.16
2022-09-06T19:39:07.993Z,19.36
2022-09-06T19:41:39.009Z,19.35
2022-09-06T19:44:08.747Z,19.20
2022-09-06T19:46:37.312Z,19.28
2022-09-06T19:49:08.180Z,19.11
2022-09-06T19:51:36.624Z,19.19
2022-09-06T19:54:05.526Z,19.27
2022-09-06T19:56:35.218Z,19.39
2022-09-06T19:59:06.040Z,19.27
2022-09-06T20:01:35.460Z,19.46
2022-09-06T20:04:05.388Z,19.52
2022-09-06T20:06:33.756Z,19.35
2022-09-06T20:09:03.109Z,19.26
2022-09-06T20:11:32.863Z,19.20
2022-09-06T20:14:01.462Z,18.96
2022-09-06T20:16:31.635Z,19.17
2022-09-06T20:19:00.292Z,19.14
2022-09-06T20:21:28.684Z,19.30
2022-09-06T20:23:58.168Z,19.03
2022-09-06T20:26:27.578Z,18.78
2022-09-06T20:28:56.752Z,18.98
2022-09-06T20:31:25.320Z,18.79
2022-09-06T20:33:54.937Z,18.83
2022-09-06T20:36:22.915Z,19.03
2022-09-06T20:38:50.925Z,18.82
2022-09-06T20:41:20.425Z,18.93
2022-09-06T20:43:52.286Z,18.94
2022-09-06T20:46:21.582Z,18.85
2022-09-06T20:48:49.699Z,18.81
2022-09-06T20:51:21.303Z,18.86
2022-09-06T20:53:52.874Z,18.80
2022-09-06T20:56:22.386Z,18.67
2022-09-06T20:58:51.125Z,18.66
2022-09-06T21:01:22.647Z,18.35
2022-09-06T21:03:52.236Z,18.31
2022-09-06T21:06:22.434Z,18.60
2022-09-06T21:08:50.708Z,18.71
2022-09-06T21:11:19.231Z,18.39
2022-09-06T21:13:49.751Z,18.23
2022-09-06T21:16:23.288Z,18.36
2022-09-06T21:18:52.781Z,18.22
2022-09-06T21:21:22.365Z,18.29
2022-09-06T21:23:50.557Z,18.34
2022-09-06T21:26:19.121Z,18.24
2022-09-06T21:28:47.958Z,18.35
2022-09-06T21:31:18.673Z,18.28
2022-09-06T21:33:48.822Z,18.22
2022-09-06T21:36:18.535Z,18.36
2022-09-06T21:38:49.144Z,18.29
2022-09-06T21:41:18.966Z,18.20
2022-09-06T21:43:47.472Z,17.96
2022-09-06T21:46:16.881Z,17.99
2022-09-06T21:48:46.946Z,17.96
2022-09-06T21:51:16.569Z,17.96
2022-09-06T21:53:46.825Z,17.92
2022-09-06T21:56:18.761Z,18.05
2022-09-06T21:58:47.251Z,18.04
2022-09-06T22:01:16.092Z,18.07
2022-09-06T22:03:44.959Z,18.09
2022-09-06T22:06:14.601Z,17.85
2022-09-06T22:08:43.793Z,17.89
2022-09-06T22:11:12.819Z,17.73
2022-09-06T22:13:42.595Z,17.66
2022-09-06T22:16:11.209Z,17.84
2022-09-06T22:18:39.714Z,18.04
2022-09-06T22:21:09.171Z,18.05
2022-09-06T22:23:37.634Z,17.92
2022-09-06T22:26:07.423Z,17.74
2022-09-06T22:28:35.557Z,17.60
2022-09-06T22:31:05.410Z,17.74
2022-09-06T22:33:33.423Z,17.89
2022-09-06T22:36:01.490Z,17.74
2022-09-06T22:38:30.104Z,17.65
2022-09-06T22:40:58.602Z,17.64
2022-09-06T22:43:27.110Z,17.58
2022-09-06T22:45:55.087Z,17.71
2022-09-06T22:48:24.461Z,17.66
2022-09-06T22:50:52.466Z,17.50
2022-09-06T22:53:20.932Z,17.52
2022-09-06T22:55:49.346Z,17.58
2022-09-06T22:58:17.504Z,17.35
2022-09-06T23:00:45.742Z,17.46
2022-09-06T23:03:13.970Z,17.31
2022-09-06T23:05:43.401Z,17.22
2022-09-06T23:08:11.406Z,17.32
2022-09-06T23:10:41.719Z,17.35
2022-09-06T23:13:10.312Z,17.30
2022-09-06T23:15:40.710Z,17.10
2022-09-06T23:18:09.112Z,17.21
2022-09-06T23:20:37.320Z,17.40
2022-09-06T23:23:07.735Z,17.37
2022-09-06T23:25:38.828Z,17.28
2022-09-06T23:28:06.977Z,16.95
2022-09-06T23:30:38.222Z,16.90
2022-09-06T23:33:06.370Z,16.80
2022-09-06T23:35:34.360Z,17.22
2022-09-06T23:38:02.403Z,17.15
2022-09-06T23:40:31.772Z,17.26
2022-09-06T23:42:59.769Z,17.23
2022-09-06T23:45:27.798Z,17.02
2022-09-06T23:47:55.802Z,16.89
2022-09-06T23:50:23.931Z,16.97
2022-09-06T23:52:51.910Z,16.88
2022-09-06T23:55:19.884Z,17.04
2022-09-06T23:57:49.274Z,17.16
